Time;durP1;ratioP1;P1;durP2;ratioP2;P2;SDS_P1;SDS_P2;PMS_P1;PMS_P2;Temp;Humidity;BMP_temperature;BMP_pressure;BME280_temperature;BME280_humidity;BME280_pressure;Samples;Min_cycle;Max_cycle;Signal;HPM_P1;HPM_P2
2021/03/22 00:00:24;;;;;;;68.82;10.07;;;;;;;;;;4955479;28;20483;-49
2021/03/22 00:02:55;;;;;;;59.80;8.52;;;;;;;;;;4975619;28;20121;-54
2021/03/22 00:05:23;;;;;;;90.03;10.02;;;;;;;;;;4967554;28;20031;-58
2021/03/22 00:07:54;;;;;;;75.90;8.93;;;;;;;;;;4958735;28;20102;-50
2021/03/22 00:10:23;;;;;;;77.53;9.75;;;;;;;;;;4953319;28;20059;-52
2021/03/22 00:12:50;;;;;;;78.63;8.90;;;;;;;;;;4971961;28;20031;-66
2021/03/22 00:15:18;;;;;;;68.55;9.50;;;;;;;;;;4971023;28;20029;-59
2021/03/22 00:17:45;;;;;;;72.68;8.75;;;;;;;;;;4953236;28;20070;-60
2021/03/22 00:20:12;;;;;;;62.03;8.45;;;;;;;;;;4957819;28;20026;-58
2021/03/22 00:22:39;;;;;;;62.45;7.63;;;;;;;;;;4980984;28;20047;-60
2021/03/22 00:25:07;;;;;;;63.30;7.15;;;;;;;;;;4986483;28;20096;-72
2021/03/22 00:27:35;;;;;;;53.85;7.30;;;;;;;;;;4984806;28;20033;-65
2021/03/22 00:30:02;;;;;;;46.92;7.75;;;;;;;;;;4986444;28;20018;-72
2021/03/22 00:32:29;;;;;;;72.88;8.27;;;;;;;;;;4991061;28;20611;-66
2021/03/22 00:34:57;;;;;;;59.53;7.72;;;;;;;;;;4987930;28;20019;-66
2021/03/22 00:37:24;;;;;;;69.65;8.73;;;;;;;;;;4991937;28;20030;-60
2021/03/22 00:39:52;;;;;;;60.85;7.70;;;;;;;;;;4984046;28;20470;-62
2021/03/22 00:42:20;;;;;;;59.30;8.02;;;;;;;;;;4987583;28;20022;-64
2021/03/22 00:44:48;;;;;;;49.78;6.28;;;;;;;;;;4990988;28;20535;-66
2021/03/22 00:47:16;;;;;;;38.10;6.22;;;;;;;;;;4991476;28;20026;-64
2021/03/22 00:49:44;;;;;;;42.97;6.05;;;;;;;;;;4991719;28;20041;-64
2021/03/22 00:52:12;;;;;;;36.97;6.32;;;;;;;;;;4966704;28;20679;-64
2021/03/22 00:54:40;;;;;;;29.85;4.93;;;;;;;;;;4992067;28;20015;-65
2021/03/22 00:57:09;;;;;;;34.53;5.68;;;;;;;;;;4991603;28;20035;-66
2021/03/22 00:59:37;;;;;;;32.85;6.00;;;;;;;;;;4991675;28;20011;-64
2021/03/22 01:02:05;;;;;;;31.80;6.25;;;;;;;;;;4991421;28;20034;-60
2021/03/22 01:04:32;;;;;;;43.00;6.10;;;;;;;;;;4988339;28;20037;-58
2021/03/22 01:06:59;;;;;;;39.78;6.53;;;;;;;;;;4980250;28;20113;-54
2021/03/22 01:09:27;;;;;;;42.90;6.88;;;;;;;;;;4991461;28;20011;-54
2021/03/22 01:11:54;;;;;;;37.95;6.45;;;;;;;;;;4986554;28;20054;-55
2021/03/22 01:14:22;;;;;;;35.83;5.93;;;;;;;;;;4991317;28;20077;-57
2021/03/22 01:16:49;;;;;;;31.02;4.93;;;;;;;;;;4989771;28;20022;-65
2021/03/22 01:19:18;;;;;;;34.45;5.13;;;;;;;;;;4989800;28;20030;-61
2021/03/22 01:21:47;;;;;;;43.13;6.53;;;;;;;;;;4989953;28;20077;-57
2021/03/22 01:24:16;;;;;;;32.60;6.00;;;;;;;;;;4991189;28;20048;-61
2021/03/22 01:26:44;;;;;;;35.05;5.35;;;;;;;;;;4985410;28;20024;-60
2021/03/22 01:29:14;;;;;;;35.78;6.05;;;;;;;;;;4990474;28;20029;-57
2021/03/22 01:31:42;;;;;;;34.78;4.75;;;;;;;;;;4990656;28;20026;-61
2021/03/22 01:34:09;;;;;;;38.78;4.95;;;;;;;;;;4990997;28;20027;-57
2021/03/22 01:36:36;;;;;;;100.43;9.43;;;;;;;;;;4990785;28;20022;-58
2021/03/22 01:39:23;;;;;;;74.93;8.57;;;;;;;;;;4991074;28;20053;-60
2021/03/22 01:41:50;;;;;;;40.17;5.13;;;;;;;;;;4990307;28;20096;-57
2021/03/22 01:44:23;;;;;;;35.33;5.10;;;;;;;;;;4990936;28;20394;-58
2021/03/22 01:46:55;;;;;;;28.67;4.60;;;;;;;;;;4990380;28;20471;-62
2021/03/22 01:49:24;;;;;;;29.90;4.65;;;;;;;;;;4980763;28;20037;-61
2021/03/22 01:51:51;;;;;;;23.67;4.30;;;;;;;;;;4972749;28;20517;-60
2021/03/22 01:54:18;;;;;;;18.85;4.55;;;;;;;;;;4990564;28;20058;-59
2021/03/22 01:56:47;;;;;;;25.83;6.22;;;;;;;;;;4977637;28;20149;-52
2021/03/22 01:59:30;;;;;;;34.50;5.70;;;;;;;;;;4991138;28;20054;-55
2021/03/22 02:02:02;;;;;;;32.65;6.68;;;;;;;;;;4989468;28;20034;-54
2021/03/22 02:04:30;;;;;;;42.45;6.80;;;;;;;;;;4971409;28;20118;-56
2021/03/22 02:06:57;;;;;;;27.48;6.60;;;;;;;;;;4973759;28;20038;-55
2021/03/22 02:09:24;;;;;;;37.40;6.93;;;;;;;;;;4971961;28;20031;-50
2021/03/22 02:11:51;;;;;;;31.77;6.75;;;;;;;;;;4977956;28;20030;-53
2021/03/22 02:14:18;;;;;;;36.03;5.90;;;;;;;;;;4970473;28;20035;-52
2021/03/22 02:16:48;;;;;;;37.22;6.25;;;;;;;;;;4972751;28;20027;-50
2021/03/22 02:19:19;;;;;;;27.38;5.88;;;;;;;;;;4971145;28;20404;-57
2021/03/22 02:21:59;;;;;;;21.67;5.65;;;;;;;;;;4985898;28;20046;-52
2021/03/22 02:24:29;;;;;;;34.17;6.40;;;;;;;;;;4990388;28;20038;-55
2021/03/22 02:26:55;;;;;;;36.28;6.15;;;;;;;;;;4971442;28;20104;-56
2021/03/22 02:29:31;;;;;;;44.03;6.07;;;;;;;;;;4990728;28;20030;-55
2021/03/22 02:32:01;;;;;;;37.15;6.20;;;;;;;;;;4990539;28;20026;-53
2021/03/22 02:34:40;;;;;;;31.95;6.15;;;;;;;;;;4994952;28;20355;-57
2021/03/22 02:37:25;;;;;;;38.35;6.70;;;;;;;;;;4992518;28;20128;-55
2021/03/22 02:39:55;;;;;;;29.13;6.68;;;;;;;;;;4994597;28;20018;-56
2021/03/22 02:42:23;;;;;;;33.17;5.32;;;;;;;;;;4993963;28;20140;-57
2021/03/22 02:44:50;;;;;;;31.20;6.07;;;;;;;;;;4994587;28;20436;-55
2021/03/22 02:47:27;;;;;;;49.03;6.57;;;;;;;;;;4994268;28;20056;-57
2021/03/22 02:49:55;;;;;;;37.10;6.03;;;;;;;;;;4993603;28;20030;-54
2021/03/22 02:52:25;;;;;;;50.08;6.25;;;;;;;;;;4994647;28;20023;-56
2021/03/22 02:55:02;;;;;;;43.63;6.20;;;;;;;;;;4993740;28;20015;-48
2021/03/22 02:57:34;;;;;;;37.63;5.22;;;;;;;;;;4993836;28;20517;-52
2021/03/22 03:00:03;;;;;;;25.45;4.57;;;;;;;;;;4977640;28;20054;-52
2021/03/22 03:02:31;;;;;;;25.58;4.90;;;;;;;;;;4995138;28;20025;-50
2021/03/22 03:05:08;;;;;;;20.48;4.40;;;;;;;;;;4994812;28;20042;-53
2021/03/22 03:07:35;;;;;;;40.78;5.63;;;;;;;;;;4994700;28;20019;-52
2021/03/22 03:10:02;;;;;;;26.08;4.97;;;;;;;;;;4994932;28;20022;-51
2021/03/22 03:12:30;;;;;;;24.08;5.07;;;;;;;;;;4994891;28;20733;-54
2021/03/22 03:14:57;;;;;;;19.60;4.60;;;;;;;;;;4994661;28;20068;-53
2021/03/22 03:17:25;;;;;;;19.58;4.50;;;;;;;;;;4994564;28;20418;-56
2021/03/22 03:19:53;;;;;;;22.80;4.80;;;;;;;;;;4994439;28;20033;-56
2021/03/22 03:22:21;;;;;;;14.82;4.10;;;;;;;;;;4993837;28;20043;-49
2021/03/22 03:24:48;;;;;;;18.63;4.10;;;;;;;;;;4994994;28;20025;-56
2021/03/22 03:27:15;;;;;;;17.50;4.68;;;;;;;;;;4994988;28;20022;-50
2021/03/22 03:29:42;;;;;;;19.38;4.80;;;;;;;;;;4994918;28;20041;-48
2021/03/22 03:32:11;;;;;;;16.20;4.90;;;;;;;;;;4994863;28;20042;-50
2021/03/22 03:34:38;;;;;;;22.95;4.85;;;;;;;;;;4993834;28;20038;-50
2021/03/22 03:37:05;;;;;;;20.42;4.32;;;;;;;;;;4993358;28;20077;-49
2021/03/22 03:39:32;;;;;;;24.23;5.13;;;;;;;;;;4994104;28;20053;-50
2021/03/22 03:42:00;;;;;;;16.17;3.88;;;;;;;;;;4994632;28;20029;-48
2021/03/22 03:44:27;;;;;;;18.77;4.22;;;;;;;;;;4994416;28;20028;-49
2021/03/22 03:46:54;;;;;;;18.90;3.95;;;;;;;;;;4994484;28;20433;-48
2021/03/22 03:49:21;;;;;;;21.33;4.95;;;;;;;;;;4994648;28;20022;-52
2021/03/22 03:51:48;;;;;;;14.32;3.85;;;;;;;;;;4994250;28;20041;-55
2021/03/22 03:54:15;;;;;;;18.45;4.30;;;;;;;;;;4994397;28;20019;-53
2021/03/22 03:56:42;;;;;;;18.05;4.13;;;;;;;;;;4994367;28;20077;-52
2021/03/22 03:59:09;;;;;;;18.60;4.32;;;;;;;;;;4977104;28;20026;-54
2021/03/22 04:01:36;;;;;;;11.13;4.05;;;;;;;;;;4994398;28;20031;-53
2021/03/22 04:04:04;;;;;;;18.13;4.07;;;;;;;;;;4994491;28;20050;-52
2021/03/22 04:06:32;;;;;;;14.15;3.67;;;;;;;;;;4994213;28;20029;-51
2021/03/22 04:09:00;;;;;;;16.08;4.07;;;;;;;;;;4994307;28;20018;-51
2021/03/22 04:11:27;;;;;;;14.77;3.90;;;;;;;;;;4994525;28;20030;-53
2021/03/22 04:13:54;;;;;;;17.27;4.63;;;;;;;;;;4994075;28;20049;-53
2021/03/22 04:16:22;;;;;;;14.10;3.67;;;;;;;;;;4994076;28;20057;-51
2021/03/22 04:18:49;;;;;;;17.55;3.88;;;;;;;;;;4994338;28;20031;-53
2021/03/22 04:21:18;;;;;;;16.17;4.60;;;;;;;;;;4993801;28;20050;-52
2021/03/22 04:23:46;;;;;;;14.82;3.88;;;;;;;;;;4976657;28;20026;-50
2021/03/22 04:26:13;;;;;;;14.15;3.60;;;;;;;;;;4993945;28;20426;-52
2021/03/22 04:28:40;;;;;;;15.82;4.00;;;;;;;;;;4994157;28;20101;-49
2021/03/22 04:31:08;;;;;;;14.07;3.35;;;;;;;;;;4993946;28;20022;-49
2021/03/22 04:33:35;;;;;;;13.30;3.85;;;;;;;;;;4993853;28;20084;-51
2021/03/22 04:36:02;;;;;;;10.82;3.40;;;;;;;;;;4993853;28;20030;-49
2021/03/22 04:38:29;;;;;;;17.13;4.00;;;;;;;;;;4993717;28;20113;-48
2021/03/22 04:40:56;;;;;;;18.58;4.00;;;;;;;;;;4993715;28;20049;-48
2021/03/22 04:43:23;;;;;;;11.57;3.03;;;;;;;;;;4993803;28;20022;-49
2021/03/22 04:45:50;;;;;;;10.52;3.10;;;;;;;;;;4993741;28;20023;-49
2021/03/22 04:48:17;;;;;;;11.50;3.42;;;;;;;;;;4993541;28;20382;-48
2021/03/22 04:50:45;;;;;;;12.10;3.35;;;;;;;;;;4993697;28;20101;-49
2021/03/22 04:53:12;;;;;;;12.07;3.50;;;;;;;;;;4993368;28;20030;-49
2021/03/22 04:55:39;;;;;;;13.40;3.83;;;;;;;;;;4992884;28;20022;-49
2021/03/22 04:58:06;;;;;;;19.42;4.60;;;;;;;;;;4993561;28;20027;-47
2021/03/22 05:00:38;;;;;;;13.60;3.70;;;;;;;;;;4975958;28;20394;-53
2021/03/22 05:03:06;;;;;;;9.63;2.73;;;;;;;;;;4993275;28;20038;-59
2021/03/22 05:05:33;;;;;;;10.93;3.10;;;;;;;;;;4993544;28;20272;-54
2021/03/22 05:08:00;;;;;;;10.95;3.33;;;;;;;;;;4993282;28;20034;-53
2021/03/22 05:10:33;;;;;;;14.15;3.28;;;;;;;;;;4993279;28;20018;-56
2021/03/22 05:13:00;;;;;;;12.57;3.53;;;;;;;;;;4993191;28;20058;-57
2021/03/22 05:15:28;;;;;;;10.85;3.05;;;;;;;;;;4993227;28;20026;-55
2021/03/22 05:17:55;;;;;;;10.55;3.40;;;;;;;;;;4992884;28;20060;-55
2021/03/22 05:20:29;;;;;;;11.38;3.33;;;;;;;;;;4993136;28;20032;-56
2021/03/22 05:22:56;;;;;;;14.60;3.25;;;;;;;;;;4993051;28;20672;-55
2021/03/22 05:25:23;;;;;;;12.43;3.42;;;;;;;;;;4975513;28;20022;-53
2021/03/22 05:27:50;;;;;;;11.65;2.95;;;;;;;;;;4975546;28;20031;-55
2021/03/22 05:30:18;;;;;;;14.90;3.30;;;;;;;;;;4992907;28;20015;-53
2021/03/22 05:32:45;;;;;;;9.60;2.67;;;;;;;;;;4975392;28;20425;-53
2021/03/22 05:35:13;;;;;;;10.18;3.20;;;;;;;;;;4992771;28;20458;-52
2021/03/22 05:37:41;;;;;;;14.65;3.40;;;;;;;;;;4992834;28;20035;-55
2021/03/22 05:40:09;;;;;;;12.20;2.78;;;;;;;;;;4992929;28;20077;-55
2021/03/22 05:43:02;;;;;;;11.90;2.95;;;;;;;;;;4992752;28;20023;-49
2021/03/22 05:45:29;;;;;;;8.40;2.90;;;;;;;;;;4970043;28;20034;-55
2021/03/22 05:48:10;;;;;;;10.32;2.92;;;;;;;;;;4992664;28;20022;-49
2021/03/22 05:50:41;;;;;;;13.10;3.22;;;;;;;;;;4992701;28;20081;-53
2021/03/22 05:53:15;;;;;;;9.07;2.92;;;;;;;;;;4975426;28;20045;-53
2021/03/22 05:55:50;;;;;;;10.80;2.95;;;;;;;;;;4992358;28;20041;-52
2021/03/22 05:58:26;;;;;;;8.98;3.15;;;;;;;;;;4992523;28;20168;-53
2021/03/22 06:01:22;;;;;;;12.52;2.92;;;;;;;;;;4992496;28;20025;-48
2021/03/22 06:03:55;;;;;;;9.50;3.08;;;;;;;;;;4992598;28;20076;-53
2021/03/22 06:06:31;;;;;;;9.75;3.13;;;;;;;;;;4994137;28;20058;-54
2021/03/22 06:09:01;;;;;;;11.73;3.30;;;;;;;;;;4996472;28;20040;-52
2021/03/22 06:11:43;;;;;;;10.20;3.55;;;;;;;;;;4996641;28;20018;-49
2021/03/22 06:14:18;;;;;;;11.70;3.45;;;;;;;;;;4996707;28;20030;-52
2021/03/22 06:16:47;;;;;;;9.27;3.00;;;;;;;;;;4996071;28;20671;-55
2021/03/22 06:19:15;;;;;;;10.25;3.35;;;;;;;;;;4996382;28;20084;-53
2021/03/22 06:21:44;;;;;;;10.27;2.83;;;;;;;;;;4996299;28;20045;-54
2021/03/22 06:24:21;;;;;;;9.05;3.60;;;;;;;;;;4996494;28;20381;-53
2021/03/22 06:26:52;;;;;;;8.07;2.80;;;;;;;;;;4996257;28;20026;-51
2021/03/22 06:29:24;;;;;;;8.90;3.33;;;;;;;;;;4995940;28;20026;-53
2021/03/22 06:31:51;;;;;;;;;;;;;;;;;;4996543;28;20462;-51
2021/03/22 06:34:20;;;;;;;11.23;2.88;;;;;;;;;;4996209;28;19905;-53
2021/03/22 06:36:48;;;;;;;10.52;3.25;;;;;;;;;;4995872;28;20453;-52
2021/03/22 06:39:15;;;;;;;8.73;3.00;;;;;;;;;;4996036;28;20054;-53
2021/03/22 06:41:45;;;;;;;9.25;2.95;;;;;;;;;;4995973;28;20025;-51
2021/03/22 06:44:15;;;;;;;10.05;3.10;;;;;;;;;;4995877;28;20497;-51
2021/03/22 06:47:02;;;;;;;11.52;3.20;;;;;;;;;;4995769;28;20054;-51
2021/03/22 06:49:31;;;;;;;9.20;2.95;;;;;;;;;;4995840;28;20026;-48
2021/03/22 06:51:59;;;;;;;7.90;2.85;;;;;;;;;;4995938;28;20033;-48
2021/03/22 06:54:32;;;;;;;6.90;2.80;;;;;;;;;;4995640;28;20034;-52
2021/03/22 06:57:04;;;;;;;10.82;3.20;;;;;;;;;;4995443;28;20561;-52
2021/03/22 06:59:31;;;;;;;6.97;2.45;;;;;;;;;;4995660;28;20030;-51
2021/03/22 07:02:10;;;;;;;8.70;2.90;;;;;;;;;;4995656;28;20046;-52
2021/03/22 07:04:38;;;;;;;9.73;2.90;;;;;;;;;;4995640;28;20015;-51
2021/03/22 07:07:24;;;;;;;8.93;2.88;;;;;;;;;;4995360;28;20081;-52
2021/03/22 07:10:01;;;;;;;8.27;2.85;;;;;;;;;;4995426;28;20378;-52
2021/03/22 07:12:31;;;;;;;5.15;2.53;;;;;;;;;;4995386;28;20056;-51
2021/03/22 07:15:16;;;;;;;9.40;3.00;;;;;;;;;;4995214;28;20068;-48
2021/03/22 07:17:43;;;;;;;6.60;2.60;;;;;;;;;;4994587;28;20105;-50
2021/03/22 07:20:16;;;;;;;7.90;2.60;;;;;;;;;;4995382;28;20023;-49
2021/03/22 07:22:42;;;;;;;;;;;;;;;;;;4995361;28;20076;-49
2021/03/22 07:25:27;;;;;;;11.10;3.17;;;;;;;;;;4995075;28;19912;-48
2021/03/22 07:27:58;;;;;;;7.38;2.95;;;;;;;;;;4994937;28;20026;-47
2021/03/22 07:30:46;;;;;;;10.45;2.85;;;;;;;;;;4995061;28;20096;-50
2021/03/22 07:33:16;;;;;;;8.55;2.63;;;;;;;;;;4995092;28;20023;-55
2021/03/22 07:36:01;;;;;;;7.53;2.42;;;;;;;;;;4995069;28;20034;-53
2021/03/22 07:38:28;;;;;;;10.50;2.33;;;;;;;;;;4994914;28;20030;-55
2021/03/22 07:40:57;;;;;;;8.85;2.90;;;;;;;;;;4994842;28;20078;-55
2021/03/22 07:43:42;;;;;;;6.00;2.25;;;;;;;;;;4994743;28;20033;-54
2021/03/22 07:46:09;;;;;;;7.53;2.35;;;;;;;;;;4994757;28;20037;-55
2021/03/22 07:49:11;;;;;;;6.70;2.63;;;;;;;;;;4994725;28;20089;-53
2021/03/22 07:51:41;;;;;;;7.23;2.13;;;;;;;;;;4934607;29;20027;-52
2021/03/22 07:54:08;;;;;;;7.13;2.70;;;;;;;;;;4967167;28;20037;-53
2021/03/22 07:56:49;;;;;;;7.28;2.38;;;;;;;;;;4994427;28;20046;-52
2021/03/22 07:59:43;;;;;;;10.80;2.45;;;;;;;;;;4994547;28;20038;-51
2021/03/22 08:02:22;;;;;;;5.10;2.10;;;;;;;;;;4994405;28;20488;-49
2021/03/22 08:05:04;;;;;;;7.82;2.47;;;;;;;;;;4977046;28;20080;-49
2021/03/22 08:07:43;;;;;;;6.93;2.47;;;;;;;;;;4994143;28;20076;-51
2021/03/22 08:10:28;;;;;;;7.53;2.60;;;;;;;;;;4994268;28;20551;-49
2021/03/22 08:13:00;;;;;;;6.15;2.22;;;;;;;;;;4994395;28;20125;-52
2021/03/22 08:15:28;;;;;;;4.43;1.95;;;;;;;;;;4994216;28;20018;-52
2021/03/22 08:17:55;;;;;;;4.97;2.00;;;;;;;;;;4994226;28;20022;-50
2021/03/22 08:20:31;;;;;;;6.30;1.80;;;;;;;;;;4994054;28;20053;-49
2021/03/22 08:23:11;;;;;;;7.05;2.08;;;;;;;;;;4994095;28;20034;-48
2021/03/22 08:25:58;;;;;;;8.10;2.38;;;;;;;;;;4993960;28;20022;-50
2021/03/22 08:28:32;;;;;;;7.20;2.20;;;;;;;;;;4994004;28;20467;-49
2021/03/22 08:31:08;;;;;;;8.25;2.30;;;;;;;;;;4993059;28;20014;-49
2021/03/22 08:33:46;;;;;;;6.57;2.17;;;;;;;;;;4994045;28;20026;-47
2021/03/22 08:36:31;;;;;;;5.70;2.13;;;;;;;;;;4993842;28;20030;-49
2021/03/22 08:39:18;;;;;;;6.50;2.60;;;;;;;;;;4993904;28;20039;-49
2021/03/22 08:41:51;;;;;;;6.65;2.05;;;;;;;;;;4993674;28;20066;-48
2021/03/22 08:44:30;;;;;;;5.10;1.95;;;;;;;;;;4993629;28;20031;-49
2021/03/22 08:47:06;;;;;;;4.63;1.92;;;;;;;;;;4993590;28;20054;-47
2021/03/22 08:49:42;;;;;;;5.47;1.98;;;;;;;;;;4993486;28;20100;-51
2021/03/22 08:52:18;;;;;;;6.60;2.38;;;;;;;;;;4976062;28;20026;-51
2021/03/22 08:54:45;;;;;;;7.22;2.38;;;;;;;;;;4993552;28;20387;-54
2021/03/22 08:57:25;;;;;;;6.63;1.90;;;;;;;;;;4993365;28;20027;-55
2021/03/22 09:00:12;;;;;;;7.50;2.13;;;;;;;;;;4993315;28;20030;-52
2021/03/22 09:02:40;;;;;;;6.22;2.10;;;;;;;;;;4993188;28;20041;-52
2021/03/22 09:05:22;;;;;;;8.15;1.83;;;;;;;;;;4993182;28;20046;-53
2021/03/22 09:07:49;;;;;;;7.93;2.35;;;;;;;;;;4993276;28;20026;-55
2021/03/22 09:10:19;;;;;;;4.88;1.88;;;;;;;;;;4993356;28;20030;-53
2021/03/22 09:12:48;;;;;;;9.00;1.98;;;;;;;;;;4993177;28;20073;-53
2021/03/22 09:15:21;;;;;;;4.82;1.67;;;;;;;;;;4975466;28;20030;-53
2021/03/22 09:17:51;;;;;;;6.55;1.98;;;;;;;;;;4993002;28;20465;-51
2021/03/22 09:20:29;;;;;;;4.95;1.90;;;;;;;;;;4993192;28;20093;-52
2021/03/22 09:23:00;;;;;;;7.55;2.03;;;;;;;;;;4993133;28;20046;-52
2021/03/22 09:25:46;;;;;;;4.15;1.60;;;;;;;;;;4975449;28;20022;-53
2021/03/22 09:28:31;;;;;;;7.00;2.00;;;;;;;;;;4992908;28;20018;-49
2021/03/22 09:30:58;;;;;;;3.58;1.63;;;;;;;;;;4975588;28;20026;-49
2021/03/22 09:33:48;;;;;;;5.07;1.75;;;;;;;;;;4992891;28;20033;-52
2021/03/22 09:36:34;;;;;;;6.13;1.80;;;;;;;;;;4992619;28;20022;-50
2021/03/22 09:39:03;;;;;;;5.68;1.58;;;;;;;;;;4992855;28;20030;-48
2021/03/22 09:41:48;;;;;;;6.97;1.90;;;;;;;;;;4992737;28;20029;-48
2021/03/22 09:44:15;;;;;;;3.55;1.58;;;;;;;;;;4992835;28;20028;-51
2021/03/22 09:46:42;;;;;;;4.50;1.60;;;;;;;;;;4992463;28;20032;-50
2021/03/22 09:49:11;;;;;;;5.72;1.92;;;;;;;;;;4992563;28;20022;-49
2021/03/22 09:51:50;;;;;;;4.93;1.67;;;;;;;;;;4992857;28;20109;-52
2021/03/22 09:54:41;;;;;;;4.07;1.60;;;;;;;;;;4992721;28;20044;-50
2021/03/22 09:57:17;;;;;;;6.55;1.88;;;;;;;;;;4992390;28;20062;-49
2021/03/22 10:00:07;;;;;;;4.82;1.65;;;;;;;;;;4992757;28;20054;-52
2021/03/22 10:02:40;;;;;;;3.83;1.48;;;;;;;;;;4992774;28;20049;-53
2021/03/22 10:05:16;;;;;;;4.47;1.40;;;;;;;;;;4975355;28;20017;-53
2021/03/22 10:07:43;;;;;;;6.10;1.70;;;;;;;;;;4992462;28;20034;-52
2021/03/22 10:10:28;;;;;;;4.45;2.03;;;;;;;;;;4992439;28;20025;-53
2021/03/22 10:12:58;;;;;;;6.78;1.70;;;;;;;;;;4992560;28;20474;-52
2021/03/22 10:15:29;;;;;;;6.65;1.67;;;;;;;;;;4992432;28;20019;-52
2021/03/22 10:18:16;;;;;;;4.90;1.57;;;;;;;;;;4992538;28;20039;-55
2021/03/22 10:20:47;;;;;;;6.28;2.10;;;;;;;;;;4992677;28;20023;-56
2021/03/22 10:23:17;;;;;;;4.33;1.67;;;;;;;;;;4992377;28;20026;-52
2021/03/22 10:25:45;;;;;;;5.38;1.67;;;;;;;;;;4992313;28;20504;-53
2021/03/22 10:28:30;;;;;;;5.93;1.65;;;;;;;;;;4992564;28;20109;-49
2021/03/22 10:31:00;;;;;;;4.85;1.63;;;;;;;;;;4992458;28;20037;-51
2021/03/22 10:33:28;;;;;;;4.40;1.60;;;;;;;;;;4992285;28;20105;-53
2021/03/22 10:35:57;;;;;;;5.38;1.60;;;;;;;;;;4992171;28;20101;-52
2021/03/22 10:38:29;;;;;;;6.38;1.50;;;;;;;;;;4992375;28;20986;-54
2021/03/22 10:40:56;;;;;;;6.15;1.52;;;;;;;;;;4992468;28;20034;-52
2021/03/22 10:43:29;;;;;;;7.68;1.98;;;;;;;;;;4992032;28;20360;-53
2021/03/22 10:45:57;;;;;;;5.65;1.65;;;;;;;;;;4992098;28;20474;-50
2021/03/22 10:48:35;;;;;;;4.90;1.48;;;;;;;;;;4992346;28;20030;-56
2021/03/22 10:51:14;;;;;;;5.28;1.60;;;;;;;;;;4992306;28;20026;-53
2021/03/22 10:53:58;;;;;;;4.97;1.65;;;;;;;;;;4994119;28;20026;-50
2021/03/22 10:56:28;;;;;;;8.65;1.52;;;;;;;;;;4978106;28;20533;-49
2021/03/22 10:58:57;;;;;;;5.10;1.80;;;;;;;;;;4995551;28;20045;-48
2021/03/22 11:01:24;;;;;;;6.32;1.60;;;;;;;;;;4995671;28;20142;-50
2021/03/22 11:03:51;;;;;;;5.88;1.88;;;;;;;;;;4995766;28;20434;-49
2021/03/22 11:06:32;;;;;;;4.63;1.67;;;;;;;;;;4995427;28;20054;-49
2021/03/22 11:09:00;;;;;;;8.55;2.08;;;;;;;;;;4995638;28;20022;-50
2021/03/22 11:11:30;;;;;;;8.80;1.40;;;;;;;;;;4995460;28;20030;-50
2021/03/22 11:14:00;;;;;;;6.28;1.65;;;;;;;;;;4995610;28;20022;-51
2021/03/22 11:16:32;;;;;;;7.28;1.75;;;;;;;;;;4995296;28;20089;-48
2021/03/22 11:19:00;;;;;;;7.57;1.70;;;;;;;;;;4995100;28;20044;-50
2021/03/22 11:21:28;;;;;;;3.65;1.55;;;;;;;;;;4995252;28;20121;-49
2021/03/22 11:23:57;;;;;;;5.82;1.60;;;;;;;;;;4995374;28;20080;-53
2021/03/22 11:26:31;;;;;;;6.72;1.40;;;;;;;;;;4995165;28;20483;-53
2021/03/22 11:29:16;;;;;;;5.18;1.58;;;;;;;;;;4977779;28;20080;-53
2021/03/22 11:31:45;;;;;;;5.15;1.48;;;;;;;;;;4994910;28;20060;-55
2021/03/22 11:34:30;;;;;;;5.00;1.52;;;;;;;;;;4995167;28;20050;-55
2021/03/22 11:37:02;;;;;;;3.15;1.52;;;;;;;;;;4995046;28;20152;-53
2021/03/22 11:39:30;;;;;;;5.63;1.42;;;;;;;;;;4994852;28;20125;-52
2021/03/22 11:41:57;;;;;;;5.45;1.70;;;;;;;;;;4994800;28;20029;-51
2021/03/22 11:44:24;;;;;;;5.70;1.45;;;;;;;;;;4994814;28;20033;-51
2021/03/22 11:46:53;;;;;;;4.55;1.30;;;;;;;;;;4994753;28;20033;-53
2021/03/22 11:49:37;;;;;;;5.15;1.70;;;;;;;;;;4994687;28;20085;-53
2021/03/22 11:52:05;;;;;;;5.35;1.63;;;;;;;;;;4994680;28;20035;-53
2021/03/22 11:54:47;;;;;;;4.07;1.77;;;;;;;;;;4994655;28;20030;-53
2021/03/22 11:57:18;;;;;;;3.13;1.40;;;;;;;;;;4994763;28;20038;-48
2021/03/22 11:59:49;;;;;;;4.22;1.27;;;;;;;;;;4994757;28;20014;-50
2021/03/22 12:02:21;;;;;;;5.88;1.27;;;;;;;;;;4977003;28;20024;-52
2021/03/22 12:04:52;;;;;;;9.85;1.65;;;;;;;;;;4976911;28;20043;-49
2021/03/22 12:07:39;;;;;;;5.70;1.73;;;;;;;;;;4994332;28;20568;-52
2021/03/22 12:10:14;;;;;;;4.80;1.70;;;;;;;;;;4994099;28;20038;-51
2021/03/22 12:12:41;;;;;;;4.50;1.42;;;;;;;;;;4986346;28;20019;-49
2021/03/22 12:15:09;;;;;;;4.68;1.58;;;;;;;;;;4974911;28;20026;-52
2021/03/22 12:17:37;;;;;;;5.63;1.58;;;;;;;;;;4975054;28;20105;-47
2021/03/22 12:20:22;;;;;;;4.82;1.70;;;;;;;;;;4993781;28;20514;-51
2021/03/22 12:22:49;;;;;;;6.43;1.65;;;;;;;;;;4976179;28;20046;-50
2021/03/22 12:25:21;;;;;;;4.40;1.52;;;;;;;;;;4993218;28;20030;-47
2021/03/22 12:27:48;;;;;;;7.72;1.60;;;;;;;;;;4993644;28;20023;-48
2021/03/22 12:30:15;;;;;;;4.40;1.25;;;;;;;;;;4994079;28;20478;-52
2021/03/22 12:32:42;;;;;;;8.25;1.60;;;;;;;;;;4993609;28;20023;-53
2021/03/22 12:35:14;;;;;;;4.60;1.60;;;;;;;;;;4985710;28;20153;-50
2021/03/22 12:37:44;;;;;;;4.38;1.23;;;;;;;;;;4989732;28;20691;-51
2021/03/22 12:40:11;;;;;;;14.45;2.13;;;;;;;;;;4975504;28;20031;-54
2021/03/22 12:42:39;;;;;;;19.90;2.65;;;;;;;;;;4985125;28;20034;-52
2021/03/22 12:45:07;;;;;;;8.68;2.20;;;;;;;;;;4991576;28;20033;-52
2021/03/22 12:47:35;;;;;;;8.30;1.73;;;;;;;;;;4974775;28;20018;-54
2021/03/22 12:50:02;;;;;;;10.90;1.92;;;;;;;;;;4992081;28;20030;-56
2021/03/22 12:52:29;;;;;;;15.25;2.03;;;;;;;;;;4991955;28;20501;-57
2021/03/22 12:54:56;;;;;;;8.95;1.80;;;;;;;;;;4975220;28;20356;-60
2021/03/22 12:57:25;;;;;;;10.65;1.48;;;;;;;;;;4992154;28;20030;-56
2021/03/22 12:59:55;;;;;;;8.95;1.58;;;;;;;;;;4992728;28;20026;-59
2021/03/22 13:02:26;;;;;;;7.82;1.50;;;;;;;;;;4992659;28;20034;-54
2021/03/22 13:04:53;;;;;;;5.03;1.40;;;;;;;;;;4992666;28;20088;-55
2021/03/22 13:07:21;;;;;;;10.60;1.85;;;;;;;;;;4991977;28;20023;-56
2021/03/22 13:09:48;;;;;;;9.35;1.60;;;;;;;;;;4990111;28;20497;-52
2021/03/22 13:12:26;;;;;;;10.40;1.65;;;;;;;;;;4991784;28;20037;-55
2021/03/22 13:14:54;;;;;;;5.55;1.38;;;;;;;;;;4992918;28;20105;-54
2021/03/22 13:17:23;;;;;;;10.20;1.80;;;;;;;;;;4991727;28;20034;-58
2021/03/22 13:19:50;;;;;;;9.68;1.33;;;;;;;;;;4992672;28;20023;-58
2021/03/22 13:22:23;;;;;;;4.20;1.20;;;;;;;;;;4992165;28;20506;-48
2021/03/22 13:24:52;;;;;;;6.88;1.45;;;;;;;;;;4993016;28;20022;-50
2021/03/22 13:27:20;;;;;;;6.07;1.15;;;;;;;;;;4992918;28;20525;-52
2021/03/22 13:29:47;;;;;;;4.68;1.35;;;;;;;;;;4993160;28;20498;-51
2021/03/22 13:32:14;;;;;;;6.03;1.50;;;;;;;;;;4992823;28;20483;-50
2021/03/22 13:34:41;;;;;;;9.48;1.40;;;;;;;;;;4992887;28;20022;-52
2021/03/22 13:37:09;;;;;;;5.20;1.88;;;;;;;;;;4992777;28;20041;-48
2021/03/22 13:39:37;;;;;;;6.68;1.65;;;;;;;;;;4992789;28;20442;-51
2021/03/22 13:42:04;;;;;;;4.38;1.38;;;;;;;;;;4992120;28;20026;-52
2021/03/22 13:44:31;;;;;;;5.10;1.63;;;;;;;;;;4992905;28;20467;-49
2021/03/22 13:46:59;;;;;;;6.95;1.45;;;;;;;;;;4991638;28;20018;-50
2021/03/22 13:49:26;;;;;;;8.45;1.60;;;;;;;;;;4992176;28;20033;-49
2021/03/22 13:51:53;;;;;;;6.30;1.48;;;;;;;;;;4992428;28;20487;-59
2021/03/22 13:54:23;;;;;;;7.60;1.85;;;;;;;;;;4992692;28;20089;-63
2021/03/22 13:56:50;;;;;;;5.65;1.42;;;;;;;;;;4992631;28;20022;-48
2021/03/22 13:59:27;;;;;;;7.28;1.58;;;;;;;;;;4992526;28;20054;-52
2021/03/22 14:01:55;;;;;;;5.22;1.45;;;;;;;;;;4992575;28;20023;-48
2021/03/22 14:04:22;;;;;;;8.90;1.90;;;;;;;;;;4992431;28;20109;-52
2021/03/22 14:06:49;;;;;;;11.07;2.05;;;;;;;;;;4991981;28;20034;-50
2021/03/22 14:09:19;;;;;;;7.30;1.50;;;;;;;;;;4992199;28;20045;-51
2021/03/22 14:11:46;;;;;;;6.65;1.85;;;;;;;;;;4992074;28;20081;-52
2021/03/22 14:14:13;;;;;;;6.15;1.48;;;;;;;;;;4991532;28;20029;-47
2021/03/22 14:16:40;;;;;;;8.27;1.95;;;;;;;;;;4992445;28;20052;-48
2021/03/22 14:19:08;;;;;;;7.80;1.63;;;;;;;;;;4992251;28;20126;-49
2021/03/22 14:21:35;;;;;;;11.50;1.67;;;;;;;;;;4974836;28;20046;-50
2021/03/22 14:24:03;;;;;;;10.18;1.60;;;;;;;;;;4992254;28;20033;-44
2021/03/22 14:26:30;;;;;;;10.95;1.48;;;;;;;;;;4992147;28;20026;-46
2021/03/22 14:28:57;;;;;;;15.35;2.15;;;;;;;;;;4991552;28;20030;-50
2021/03/22 14:31:27;;;;;;;12.02;2.20;;;;;;;;;;4994120;28;20022;-50
2021/03/22 14:33:55;;;;;;;12.52;2.00;;;;;;;;;;4995435;28;20015;-57
2021/03/22 14:36:26;;;;;;;13.70;2.22;;;;;;;;;;4995249;28;20026;-58
2021/03/22 14:38:54;;;;;;;18.10;2.17;;;;;;;;;;4995553;28;20486;-57
2021/03/22 14:41:21;;;;;;;20.27;2.10;;;;;;;;;;4987499;28;20106;-54
2021/03/22 14:43:48;;;;;;;16.60;2.50;;;;;;;;;;4976223;28;20030;-50
2021/03/22 14:46:15;;;;;;;16.13;2.00;;;;;;;;;;4976432;28;20019;-55
2021/03/22 14:48:42;;;;;;;18.90;2.05;;;;;;;;;;4976472;28;20446;-52
2021/03/22 14:51:09;;;;;;;9.63;1.60;;;;;;;;;;4976061;28;20054;-56
2021/03/22 14:53:37;;;;;;;14.60;2.33;;;;;;;;;;4958889;28;20522;-58
2021/03/22 14:56:05;;;;;;;24.60;2.70;;;;;;;;;;4976074;28;20023;-57
2021/03/22 14:58:32;;;;;;;21.00;2.35;;;;;;;;;;4976027;28;20039;-58